sensor_id;sensor_type;location;lat;lon;timestamp;P1;durP1;ratioP1;P2;durP2;ratioP2
52342;SDS011;38277;51.972;4.624;2023-05-20T00:03:00;8.8;;;3.0;;
52342;SDS011;38277;51.972;4.624;2023-05-20T00:07:08;7.9;;;3.1;;
52342;SDS011;38277;51.972;4.624;2023-05-20T00:16:21;7.7;;;3.4;;
52342;SDS011;38277;51.972;4.624;2023-05-20T00:20:53;9.7;;;3.4;;
52342;SDS011;38277;51.972;4.624;2023-05-20T00:25:23;7.9;;;3.8;;
52342;SDS011;38277;51.972;4.624;2023-05-20T00:29:38;9.3;;;3.9;;
52342;SDS011;38277;51.972;4.624;2023-05-20T00:34:23;9.3;;;3.6;;
52342;SDS011;38277;51.972;4.624;2023-05-20T00:39:05;10.5;;;3.5;;
52342;SDS011;38277;51.972;4.624;2023-05-20T00:43:13;8.5;;;3.6;;
52342;SDS011;38277;51.972;4.624;2023-05-20T00:47:59;9.9;;;4.1;;
52342;SDS011;38277;51.972;4.624;2023-05-20T00:52:30;6.7;;;3.0;;
52342;SDS011;38277;51.972;4.624;2023-05-20T00:56:37;9.1;;;3.6;;
52342;SDS011;38277;51.972;4.624;2023-05-20T01:01:14;9.4;;;3.4;;
52342;SDS011;38277;51.972;4.624;2023-05-20T01:10:09;8.7;;;3.3;;
52342;SDS011;38277;51.972;4.624;2023-05-20T01:19:17;10.5;;;3.5;;
52342;SDS011;38277;51.972;4.624;2023-05-20T01:23:49;11.0;;;3.7;;
52342;SDS011;38277;51.972;4.624;2023-05-20T01:28:35;9.4;;;4.0;;
52342;SDS011;38277;51.972;4.624;2023-05-20T01:32:47;7.2;;;3.5;;
52342;SDS011;38277;51.972;4.624;2023-05-20T01:37:07;9.1;;;3.9;;
52342;SDS011;38277;51.972;4.624;2023-05-20T01:41:48;8.8;;;3.7;;
52342;SDS011;38277;51.972;4.624;2023-05-20T01:50:42;9.3;;;3.3;;
52342;SDS011;38277;51.972;4.624;2023-05-20T01:55:11;11.8;;;4.0;;
52342;SDS011;38277;51.972;4.624;2023-05-20T01:59:43;10.1;;;3.9;;
52342;SDS011;38277;51.972;4.624;2023-05-20T02:04:28;11.0;;;3.8;;
52342;SDS011;38277;51.972;4.624;2023-05-20T02:08:44;10.0;;;4.0;;
52342;SDS011;38277;51.972;4.624;2023-05-20T02:13:21;7.3;;;3.8;;
52342;SDS011;38277;51.972;4.624;2023-05-20T02:17:51;6.4;;;4.1;;
52342;SDS011;38277;51.972;4.624;2023-05-20T02:22:12;9.9;;;5.1;;
52342;SDS011;38277;51.972;4.624;2023-05-20T02:26:54;8.7;;;4.1;;
52342;SDS011;38277;51.972;4.624;2023-05-20T02:31:23;8.9;;;4.0;;
52342;SDS011;38277;51.972;4.624;2023-05-20T02:36:05;8.5;;;4.1;;
52342;SDS011;38277;51.972;4.624;2023-05-20T02:40:08;11.4;;;4.4;;
52342;SDS011;38277;51.972;4.624;2023-05-20T02:44:52;8.0;;;4.0;;
52342;SDS011;38277;51.972;4.624;2023-05-20T02:54:01;10.9;;;4.9;;
52342;SDS011;38277;51.972;4.624;2023-05-20T02:58:25;9.7;;;4.4;;
52342;SDS011;38277;51.972;4.624;2023-05-20T03:03:06;8.8;;;4.4;;
52342;SDS011;38277;51.972;4.624;2023-05-20T03:07:18;11.7;;;5.4;;
52342;SDS011;38277;51.972;4.624;2023-05-20T03:11:38;12.0;;;5.8;;
52342;SDS011;38277;51.972;4.624;2023-05-20T03:16:14;8.4;;;4.4;;
52342;SDS011;38277;51.972;4.624;2023-05-20T03:21:05;7.3;;;3.7;;
52342;SDS011;38277;51.972;4.624;2023-05-20T03:29:56;9.8;;;4.4;;
52342;SDS011;38277;51.972;4.624;2023-05-20T03:34:32;9.1;;;4.1;;
52342;SDS011;38277;51.972;4.624;2023-05-20T03:39:00;8.9;;;5.2;;
52342;SDS011;38277;51.972;4.624;2023-05-20T03:43:11;7.8;;;4.0;;
52342;SDS011;38277;51.972;4.624;2023-05-20T03:47:37;10.4;;;5.1;;
52342;SDS011;38277;51.972;4.624;2023-05-20T03:52:13;9.7;;;4.0;;
52342;SDS011;38277;51.972;4.624;2023-05-20T03:56:57;7.8;;;4.2;;
52342;SDS011;38277;51.972;4.624;2023-05-20T04:01:36;8.4;;;4.5;;
52342;SDS011;38277;51.972;4.624;2023-05-20T04:05:52;10.6;;;4.7;;
52342;SDS011;38277;51.972;4.624;2023-05-20T04:10:21;7.6;;;3.9;;
52342;SDS011;38277;51.972;4.624;2023-05-20T04:14:50;10.7;;;4.9;;
52342;SDS011;38277;51.972;4.624;2023-05-20T04:19:11;11.2;;;4.6;;
52342;SDS011;38277;51.972;4.624;2023-05-20T04:23:53;9.3;;;4.4;;
52342;SDS011;38277;51.972;4.624;2023-05-20T04:28:11;8.5;;;4.9;;
52342;SDS011;38277;51.972;4.624;2023-05-20T04:32:48;8.8;;;4.3;;
52342;SDS011;38277;51.972;4.624;2023-05-20T04:42:01;7.2;;;3.5;;
52342;SDS011;38277;51.972;4.624;2023-05-20T04:55:11;8.9;;;3.8;;
52342;SDS011;38277;51.972;4.624;2023-05-20T04:59:46;8.9;;;4.1;;
52342;SDS011;38277;51.972;4.624;2023-05-20T05:09:03;10.0;;;3.8;;
52342;SDS011;38277;51.972;4.624;2023-05-20T05:13:34;7.9;;;3.4;;
52342;SDS011;38277;51.972;4.624;2023-05-20T05:18:05;11.9;;;3.9;;
52342;SDS011;38277;51.972;4.624;2023-05-20T05:22:30;7.9;;;3.6;;
52342;SDS011;38277;51.972;4.624;2023-05-20T05:31:15;6.8;;;3.5;;
52342;SDS011;38277;51.972;4.624;2023-05-20T05:35:50;10.2;;;3.5;;
52342;SDS011;38277;51.972;4.624;2023-05-20T05:40:23;9.2;;;3.9;;
52342;SDS011;38277;51.972;4.624;2023-05-20T05:44:40;10.9;;;4.1;;
52342;SDS011;38277;51.972;4.624;2023-05-20T05:50:00;9.5;;;4.0;;
52342;SDS011;38277;51.972;4.624;2023-05-20T05:53:37;9.7;;;4.0;;
52342;SDS011;38277;51.972;4.624;2023-05-20T05:58:18;9.8;;;3.6;;
52342;SDS011;38277;51.972;4.624;2023-05-20T06:02:48;7.7;;;3.9;;
52342;SDS011;38277;51.972;4.624;2023-05-20T06:07:26;6.8;;;3.2;;
52342;SDS011;38277;51.972;4.624;2023-05-20T06:11:56;8.4;;;3.9;;
52342;SDS011;38277;51.972;4.624;2023-05-20T06:16:34;8.1;;;3.7;;
52342;SDS011;38277;51.972;4.624;2023-05-20T06:21:07;9.9;;;4.8;;
52342;SDS011;38277;51.972;4.624;2023-05-20T06:25:36;8.1;;;3.5;;
52342;SDS011;38277;51.972;4.624;2023-05-20T06:30:11;8.5;;;3.8;;
52342;SDS011;38277;51.972;4.624;2023-05-20T06:34:26;12.7;;;4.0;;
52342;SDS011;38277;51.972;4.624;2023-05-20T06:43:16;9.1;;;3.6;;
52342;SDS011;38277;51.972;4.624;2023-05-20T06:47:51;9.5;;;4.3;;
52342;SDS011;38277;51.972;4.624;2023-05-20T06:52:20;9.5;;;4.4;;
52342;SDS011;38277;51.972;4.624;2023-05-20T07:01:48;6.7;;;3.4;;
52342;SDS011;38277;51.972;4.624;2023-05-20T07:06:01;12.3;;;4.3;;
52342;SDS011;38277;51.972;4.624;2023-05-20T07:10:08;8.1;;;3.7;;
52342;SDS011;38277;51.972;4.624;2023-05-20T07:15:22;9.5;;;3.5;;
52342;SDS011;38277;51.972;4.624;2023-05-20T07:19:10;11.8;;;3.8;;
52342;SDS011;38277;51.972;4.624;2023-05-20T07:23:51;10.8;;;4.4;;
52342;SDS011;38277;51.972;4.624;2023-05-20T07:28:20;5.6;;;3.2;;
52342;SDS011;38277;51.972;4.624;2023-05-20T07:32:41;8.2;;;3.5;;
52342;SDS011;38277;51.972;4.624;2023-05-20T07:37:36;14.7;;;4.4;;
52342;SDS011;38277;51.972;4.624;2023-05-20T07:41:43;7.7;;;3.6;;
52342;SDS011;38277;51.972;4.624;2023-05-20T07:46:28;9.7;;;3.6;;
52342;SDS011;38277;51.972;4.624;2023-05-20T07:51:02;7.3;;;3.9;;
52342;SDS011;38277;51.972;4.624;2023-05-20T07:55:47;6.9;;;3.3;;
52342;SDS011;38277;51.972;4.624;2023-05-20T07:59:50;7.1;;;3.3;;
52342;SDS011;38277;51.972;4.624;2023-05-20T08:04:33;5.3;;;2.9;;
52342;SDS011;38277;51.972;4.624;2023-05-20T08:09:01;7.3;;;2.9;;
52342;SDS011;38277;51.972;4.624;2023-05-20T08:14:01;8.9;;;3.1;;
52342;SDS011;38277;51.972;4.624;2023-05-20T08:17:40;7.3;;;2.9;;
52342;SDS011;38277;51.972;4.624;2023-05-20T08:22:10;7.1;;;3.4;;
52342;SDS011;38277;51.972;4.624;2023-05-20T08:26:52;6.6;;;3.2;;
52342;SDS011;38277;51.972;4.624;2023-05-20T08:31:15;6.7;;;3.6;;
52342;SDS011;38277;51.972;4.624;2023-05-20T08:35:49;8.9;;;3.3;;
52342;SDS011;38277;51.972;4.624;2023-05-20T08:40:08;6.3;;;2.7;;
52342;SDS011;38277;51.972;4.624;2023-05-20T08:44:49;7.3;;;3.0;;
52342;SDS011;38277;51.972;4.624;2023-05-20T08:49:09;6.3;;;2.4;;
52342;SDS011;38277;51.972;4.624;2023-05-20T08:53:43;7.2;;;2.7;;
52342;SDS011;38277;51.972;4.624;2023-05-20T08:58:33;4.2;;;2.8;;
52342;SDS011;38277;51.972;4.624;2023-05-20T09:02:46;7.3;;;3.0;;
52342;SDS011;38277;51.972;4.624;2023-05-20T09:07:12;4.3;;;2.5;;
52342;SDS011;38277;51.972;4.624;2023-05-20T09:11:39;5.0;;;2.4;;
52342;SDS011;38277;51.972;4.624;2023-05-20T09:16:08;6.7;;;2.2;;
52342;SDS011;38277;51.972;4.624;2023-05-20T09:20:38;6.7;;;2.6;;
52342;SDS011;38277;51.972;4.624;2023-05-20T09:25:31;3.2;;;1.8;;
52342;SDS011;38277;51.972;4.624;2023-05-20T09:29:58;4.7;;;1.9;;
52342;SDS011;38277;51.972;4.624;2023-05-20T09:38:52;4.6;;;1.9;;
52342;SDS011;38277;51.972;4.624;2023-05-20T09:43:34;4.2;;;2.0;;
52342;SDS011;38277;51.972;4.624;2023-05-20T09:47:53;3.4;;;1.9;;
52342;SDS011;38277;51.972;4.624;2023-05-20T09:52:26;6.6;;;2.2;;
52342;SDS011;38277;51.972;4.624;2023-05-20T09:56:51;8.3;;;1.9;;
52342;SDS011;38277;51.972;4.624;2023-05-20T10:01:35;4.6;;;1.7;;
52342;SDS011;38277;51.972;4.624;2023-05-20T10:05:39;4.0;;;1.6;;
52342;SDS011;38277;51.972;4.624;2023-05-20T10:10:50;3.8;;;1.7;;
52342;SDS011;38277;51.972;4.624;2023-05-20T10:15:57;4.9;;;1.8;;
52342;SDS011;38277;51.972;4.624;2023-05-20T10:19:34;7.4;;;2.0;;
52342;SDS011;38277;51.972;4.624;2023-05-20T10:23:44;2.8;;;1.6;;
52342;SDS011;38277;51.972;4.624;2023-05-20T10:32:47;5.9;;;2.2;;
52342;SDS011;38277;51.972;4.624;2023-05-20T10:37:24;2.9;;;1.8;;
52342;SDS011;38277;51.972;4.624;2023-05-20T10:42:11;3.8;;;1.9;;
52342;SDS011;38277;51.972;4.624;2023-05-20T10:46:17;4.0;;;1.6;;
52342;SDS011;38277;51.972;4.624;2023-05-20T10:50:48;3.0;;;1.7;;
52342;SDS011;38277;51.972;4.624;2023-05-20T10:55:35;4.1;;;1.6;;
52342;SDS011;38277;51.972;4.624;2023-05-20T10:59:54;3.2;;;1.7;;
52342;SDS011;38277;51.972;4.624;2023-05-20T11:08:54;3.5;;;1.9;;
52342;SDS011;38277;51.972;4.624;2023-05-20T11:13:21;3.7;;;1.8;;
52342;SDS011;38277;51.972;4.624;2023-05-20T11:17:38;5.1;;;1.8;;
52342;SDS011;38277;51.972;4.624;2023-05-20T11:22:34;3.5;;;2.0;;
52342;SDS011;38277;51.972;4.624;2023-05-20T11:27:00;3.9;;;1.5;;
52342;SDS011;38277;51.972;4.624;2023-05-20T11:31:36;3.3;;;1.8;;
52342;SDS011;38277;51.972;4.624;2023-05-20T11:35:59;3.4;;;1.5;;
52342;SDS011;38277;51.972;4.624;2023-05-20T11:44:46;4.3;;;1.8;;
52342;SDS011;38277;51.972;4.624;2023-05-20T11:49:15;5.1;;;1.8;;
52342;SDS011;38277;51.972;4.624;2023-05-20T11:53:51;5.2;;;1.9;;
52342;SDS011;38277;51.972;4.624;2023-05-20T11:58:10;5.9;;;2.0;;
52342;SDS011;38277;51.972;4.624;2023-05-20T12:03:04;4.4;;;1.6;;
52342;SDS011;38277;51.972;4.624;2023-05-20T12:07:16;4.7;;;1.8;;
52342;SDS011;38277;51.972;4.624;2023-05-20T12:11:53;2.0;;;1.4;;
52342;SDS011;38277;51.972;4.624;2023-05-20T12:16:36;3.3;;;1.7;;
52342;SDS011;38277;51.972;4.624;2023-05-20T12:21:04;8.6;;;2.0;;
52342;SDS011;38277;51.972;4.624;2023-05-20T12:25:33;6.1;;;2.0;;
52342;SDS011;38277;51.972;4.624;2023-05-20T12:29:56;6.7;;;3.1;;
52342;SDS011;38277;51.972;4.624;2023-05-20T12:34:12;4.7;;;1.8;;
52342;SDS011;38277;51.972;4.624;2023-05-20T12:38:41;5.4;;;1.4;;
52342;SDS011;38277;51.972;4.624;2023-05-20T12:47:52;3.5;;;1.7;;
52342;SDS011;38277;51.972;4.624;2023-05-20T12:52:19;2.7;;;1.6;;
52342;SDS011;38277;51.972;4.624;2023-05-20T12:56:41;4.3;;;1.7;;
52342;SDS011;38277;51.972;4.624;2023-05-20T13:01:33;6.6;;;2.0;;
52342;SDS011;38277;51.972;4.624;2023-05-20T13:06:01;3.4;;;1.8;;
52342;SDS011;38277;51.972;4.624;2023-05-20T13:10:31;5.3;;;1.6;;
52342;SDS011;38277;51.972;4.624;2023-05-20T13:15:03;7.3;;;1.8;;
52342;SDS011;38277;51.972;4.624;2023-05-20T13:19:16;5.5;;;2.3;;
52342;SDS011;38277;51.972;4.624;2023-05-20T13:24:20;5.0;;;1.8;;
52342;SDS011;38277;51.972;4.624;2023-05-20T13:28:24;20.2;;;3.5;;
52342;SDS011;38277;51.972;4.624;2023-05-20T13:32:50;4.0;;;1.6;;
52342;SDS011;38277;51.972;4.624;2023-05-20T13:37:26;4.4;;;1.8;;
52342;SDS011;38277;51.972;4.624;2023-05-20T13:42:05;3.8;;;1.6;;
52342;SDS011;38277;51.972;4.624;2023-05-20T13:46:18;7.7;;;2.0;;
52342;SDS011;38277;51.972;4.624;2023-05-20T13:50:58;4.7;;;1.7;;
52342;SDS011;38277;51.972;4.624;2023-05-20T13:55:36;2.6;;;1.4;;
52342;SDS011;38277;51.972;4.624;2023-05-20T13:59:37;17.2;;;5.3;;
52342;SDS011;38277;51.972;4.624;2023-05-20T14:04:32;6.6;;;1.6;;
52342;SDS011;38277;51.972;4.624;2023-05-20T14:08:42;4.1;;;1.6;;
52342;SDS011;38277;51.972;4.624;2023-05-20T14:13:59;2.6;;;1.5;;
52342;SDS011;38277;51.972;4.624;2023-05-20T14:18:02;6.1;;;2.4;;
52342;SDS011;38277;51.972;4.624;2023-05-20T14:22:13;6.3;;;1.8;;
52342;SDS011;38277;51.972;4.624;2023-05-20T14:27:00;6.6;;;1.7;;
52342;SDS011;38277;51.972;4.624;2023-05-20T14:31:13;3.6;;;1.7;;
52342;SDS011;38277;51.972;4.624;2023-05-20T14:35:49;2.7;;;1.2;;
52342;SDS011;38277;51.972;4.624;2023-05-20T14:40:12;7.8;;;2.5;;
52342;SDS011;38277;51.972;4.624;2023-05-20T14:44:41;9.8;;;3.0;;
52342;SDS011;38277;51.972;4.624;2023-05-20T14:49:19;8.0;;;2.5;;
52342;SDS011;38277;51.972;4.624;2023-05-20T14:53:48;7.1;;;1.7;;
52342;SDS011;38277;51.972;4.624;2023-05-20T14:58:19;2.8;;;1.6;;
52342;SDS011;38277;51.972;4.624;2023-05-20T15:07:16;3.6;;;1.5;;
52342;SDS011;38277;51.972;4.624;2023-05-20T15:12:01;4.1;;;1.4;;
52342;SDS011;38277;51.972;4.624;2023-05-20T15:16:13;2.5;;;1.4;;
52342;SDS011;38277;51.972;4.624;2023-05-20T15:20:53;5.8;;;1.6;;
52342;SDS011;38277;51.972;4.624;2023-05-20T15:25:36;5.3;;;2.1;;
52342;SDS011;38277;51.972;4.624;2023-05-20T15:29:47;5.3;;;2.8;;
52342;SDS011;38277;51.972;4.624;2023-05-20T15:38:44;3.5;;;1.8;;
52342;SDS011;38277;51.972;4.624;2023-05-20T15:43:13;3.7;;;1.4;;
52342;SDS011;38277;51.972;4.624;2023-05-20T15:47:45;3.8;;;1.5;;
52342;SDS011;38277;51.972;4.624;2023-05-20T15:52:23;3.1;;;1.8;;
52342;SDS011;38277;51.972;4.624;2023-05-20T15:57:06;5.1;;;2.6;;
52342;SDS011;38277;51.972;4.624;2023-05-20T16:01:10;2.1;;;1.5;;
52342;SDS011;38277;51.972;4.624;2023-05-20T16:05:43;2.1;;;1.4;;
52342;SDS011;38277;51.972;4.624;2023-05-20T16:10:21;6.0;;;1.8;;
52342;SDS011;38277;51.972;4.624;2023-05-20T16:15:18;3.0;;;1.6;;
52342;SDS011;38277;51.972;4.624;2023-05-20T16:19:10;3.2;;;1.6;;
52342;SDS011;38277;51.972;4.624;2023-05-20T16:24:00;5.4;;;2.1;;
52342;SDS011;38277;51.972;4.624;2023-05-20T16:28:13;2.8;;;1.6;;
52342;SDS011;38277;51.972;4.624;2023-05-20T16:33:00;3.8;;;1.9;;
52342;SDS011;38277;51.972;4.624;2023-05-20T16:37:08;3.1;;;1.8;;
52342;SDS011;38277;51.972;4.624;2023-05-20T16:41:49;7.1;;;2.3;;
52342;SDS011;38277;51.972;4.624;2023-05-20T16:46:10;5.7;;;2.0;;
52342;SDS011;38277;51.972;4.624;2023-05-20T16:50:57;4.8;;;2.0;;
52342;SDS011;38277;51.972;4.624;2023-05-20T16:55:32;6.9;;;2.1;;
52342;SDS011;38277;51.972;4.624;2023-05-20T16:59:48;5.1;;;2.0;;
52342;SDS011;38277;51.972;4.624;2023-05-20T17:08:41;5.0;;;2.3;;
52342;SDS011;38277;51.972;4.624;2023-05-20T17:13:25;5.7;;;2.3;;
52342;SDS011;38277;51.972;4.624;2023-05-20T17:17:58;8.8;;;2.4;;
52342;SDS011;38277;51.972;4.624;2023-05-20T17:22:16;8.6;;;2.1;;
52342;SDS011;38277;51.972;4.624;2023-05-20T17:26:56;4.3;;;2.2;;
52342;SDS011;38277;51.972;4.624;2023-05-20T17:31:21;5.7;;;2.4;;
52342;SDS011;38277;51.972;4.624;2023-05-20T17:35:38;6.4;;;2.9;;
52342;SDS011;38277;51.972;4.624;2023-05-20T17:49:21;7.5;;;2.8;;
52342;SDS011;38277;51.972;4.624;2023-05-20T17:54:02;5.7;;;2.5;;
52342;SDS011;38277;51.972;4.624;2023-05-20T17:58:23;6.9;;;2.9;;
52342;SDS011;38277;51.972;4.624;2023-05-20T18:02:38;6.4;;;2.9;;
52342;SDS011;38277;51.972;4.624;2023-05-20T18:07:35;9.0;;;3.0;;
52342;SDS011;38277;51.972;4.624;2023-05-20T18:12:01;8.8;;;3.1;;
52342;SDS011;38277;51.972;4.624;2023-05-20T18:16:33;8.1;;;3.0;;
52342;SDS011;38277;51.972;4.624;2023-05-20T18:21:03;5.9;;;3.0;;
52342;SDS011;38277;51.972;4.624;2023-05-20T18:25:19;7.4;;;2.8;;
52342;SDS011;38277;51.972;4.624;2023-05-20T18:29:44;6.0;;;2.4;;
52342;SDS011;38277;51.972;4.624;2023-05-20T18:34:20;6.4;;;3.0;;
52342;SDS011;38277;51.972;4.624;2023-05-20T18:43:21;8.6;;;3.0;;
52342;SDS011;38277;51.972;4.624;2023-05-20T18:47:59;9.1;;;3.1;;
52342;SDS011;38277;51.972;4.624;2023-05-20T18:52:18;6.6;;;2.8;;
52342;SDS011;38277;51.972;4.624;2023-05-20T18:56:38;8.8;;;2.7;;
52342;SDS011;38277;51.972;4.624;2023-05-20T19:01:35;6.3;;;3.1;;
52342;SDS011;38277;51.972;4.624;2023-05-20T19:05:37;6.7;;;3.1;;
52342;SDS011;38277;51.972;4.624;2023-05-20T19:10:24;7.6;;;3.4;;
52342;SDS011;38277;51.972;4.624;2023-05-20T19:19:14;7.4;;;3.3;;
52342;SDS011;38277;51.972;4.624;2023-05-20T19:23:38;10.2;;;3.5;;
52342;SDS011;38277;51.972;4.624;2023-05-20T19:28:12;6.6;;;2.9;;
52342;SDS011;38277;51.972;4.624;2023-05-20T19:32:52;6.8;;;3.0;;
52342;SDS011;38277;51.972;4.624;2023-05-20T19:37:39;6.4;;;3.3;;
52342;SDS011;38277;51.972;4.624;2023-05-20T19:42:06;8.1;;;3.5;;
52342;SDS011;38277;51.972;4.624;2023-05-20T19:46:27;6.0;;;2.8;;
52342;SDS011;38277;51.972;4.624;2023-05-20T19:50:56;6.1;;;2.6;;
52342;SDS011;38277;51.972;4.624;2023-05-20T19:55:43;4.1;;;2.6;;
52342;SDS011;38277;51.972;4.624;2023-05-20T19:59:44;9.1;;;3.0;;
52342;SDS011;38277;51.972;4.624;2023-05-20T20:04:28;7.4;;;3.3;;
52342;SDS011;38277;51.972;4.624;2023-05-20T20:13:16;7.3;;;2.9;;
52342;SDS011;38277;51.972;4.624;2023-05-20T20:22:11;4.8;;;2.5;;
52342;SDS011;38277;51.972;4.624;2023-05-20T20:26:38;4.8;;;2.6;;
52342;SDS011;38277;51.972;4.624;2023-05-20T20:31:22;6.2;;;2.6;;
52342;SDS011;38277;51.972;4.624;2023-05-20T20:35:45;5.0;;;3.0;;
52342;SDS011;38277;51.972;4.624;2023-05-20T20:40:11;7.2;;;2.7;;
52342;SDS011;38277;51.972;4.624;2023-05-20T20:45:05;5.7;;;2.3;;
52342;SDS011;38277;51.972;4.624;2023-05-20T20:49:18;6.0;;;2.2;;
52342;SDS011;38277;51.972;4.624;2023-05-20T20:58:20;4.2;;;2.2;;
52342;SDS011;38277;51.972;4.624;2023-05-20T21:02:44;5.0;;;2.0;;
52342;SDS011;38277;51.972;4.624;2023-05-20T21:07:10;6.9;;;2.6;;
52342;SDS011;38277;51.972;4.624;2023-05-20T21:11:38;4.6;;;2.2;;
52342;SDS011;38277;51.972;4.624;2023-05-20T21:16:23;6.9;;;2.4;;
52342;SDS011;38277;51.972;4.624;2023-05-20T21:20:45;5.0;;;2.3;;
52342;SDS011;38277;51.972;4.624;2023-05-20T21:25:19;8.1;;;2.3;;
52342;SDS011;38277;51.972;4.624;2023-05-20T21:29:41;5.6;;;2.2;;
52342;SDS011;38277;51.972;4.624;2023-05-20T21:34:18;5.5;;;2.9;;
52342;SDS011;38277;51.972;4.624;2023-05-20T21:43:14;4.9;;;2.3;;
52342;SDS011;38277;51.972;4.624;2023-05-20T21:47:56;2.5;;;1.8;;
52342;SDS011;38277;51.972;4.624;2023-05-20T21:52:09;3.2;;;2.0;;
52342;SDS011;38277;51.972;4.624;2023-05-20T21:57:02;3.4;;;2.3;;
52342;SDS011;38277;51.972;4.624;2023-05-20T22:01:27;5.0;;;2.2;;
52342;SDS011;38277;51.972;4.624;2023-05-20T22:05:44;6.4;;;2.5;;
52342;SDS011;38277;51.972;4.624;2023-05-20T22:10:30;5.5;;;2.3;;
52342;SDS011;38277;51.972;4.624;2023-05-20T22:14:41;3.5;;;2.4;;
52342;SDS011;38277;51.972;4.624;2023-05-20T22:19:18;3.6;;;2.1;;
52342;SDS011;38277;51.972;4.624;2023-05-20T22:23:40;3.9;;;2.0;;
52342;SDS011;38277;51.972;4.624;2023-05-20T22:28:25;4.7;;;2.3;;
52342;SDS011;38277;51.972;4.624;2023-05-20T22:32:52;3.8;;;2.3;;
52342;SDS011;38277;51.972;4.624;2023-05-20T22:37:18;3.1;;;2.0;;
52342;SDS011;38277;51.972;4.624;2023-05-20T22:42:05;4.4;;;2.2;;
52342;SDS011;38277;51.972;4.624;2023-05-20T22:46:23;5.7;;;2.1;;
52342;SDS011;38277;51.972;4.624;2023-05-20T22:55:25;4.5;;;2.4;;
52342;SDS011;38277;51.972;4.624;2023-05-20T23:00:00;5.1;;;2.3;;
52342;SDS011;38277;51.972;4.624;2023-05-20T23:04:24;4.8;;;2.4;;
52342;SDS011;38277;51.972;4.624;2023-05-20T23:09:00;4.0;;;2.0;;
52342;SDS011;38277;51.972;4.624;2023-05-20T23:13:14;5.0;;;2.4;;
52342;SDS011;38277;51.972;4.624;2023-05-20T23:17:37;4.5;;;2.4;;
52342;SDS011;38277;51.972;4.624;2023-05-20T23:22:15;6.4;;;2.5;;
52342;SDS011;38277;51.972;4.624;2023-05-20T23:31:17;4.9;;;2.7;;
52342;SDS011;38277;51.972;4.624;2023-05-20T23:36:29;4.0;;;2.4;;
52342;SDS011;38277;51.972;4.624;2023-05-20T23:40:32;5.3;;;2.5;;
52342;SDS011;38277;51.972;4.624;2023-05-20T23:45:05;4.3;;;2.5;;
52342;SDS011;38277;51.972;4.624;2023-05-20T23:49:22;3.8;;;2.2;;
52342;SDS011;38277;51.972;4.624;2023-05-20T23:53:50;4.9;;;2.5;;
52342;SDS011;38277;51.972;4.624;2023-05-20T23:58:33;3.8;;;2.0;;
